sensor_id;sensor_type;location;lat;lon;timestamp;pressure;altitude;pressure_sealevel;temperature
14666;BMP280;7420;53.574;10.040;2023-06-04T00:01:39;54229.28;;;-136.87
14666;BMP280;7420;53.574;10.040;2023-06-04T00:04:05;54233.38;;;-136.87
14666;BMP280;7420;53.574;10.040;2023-06-04T00:06:30;54233.38;;;-136.87
14666;BMP280;7420;53.574;10.040;2023-06-04T00:08:55;54233.38;;;-136.87
14666;BMP280;7420;53.574;10.040;2023-06-04T00:11:21;54231.31;;;-136.87
14666;BMP280;7420;53.574;10.040;2023-06-04T00:13:46;54233.38;;;-136.87
14666;BMP280;7420;53.574;10.040;2023-06-04T00:16:12;54233.38;;;-136.87
14666;BMP280;7420;53.574;10.040;2023-06-04T00:18:38;54231.31;;;-136.87
14666;BMP280;7420;53.574;10.040;2023-06-04T00:21:03;54229.28;;;-136.87
14666;BMP280;7420;53.574;10.040;2023-06-04T00:23:29;54231.31;;;-136.87
14666;BMP280;7420;53.574;10.040;2023-06-04T00:25:54;54233.38;;;-136.87
14666;BMP280;7420;53.574;10.040;2023-06-04T00:28:19;54233.38;;;-136.87
14666;BMP280;7420;53.574;10.040;2023-06-04T00:30:46;54233.38;;;-136.87
14666;BMP280;7420;53.574;10.040;2023-06-04T00:33:11;54231.31;;;-136.87
14666;BMP280;7420;53.574;10.040;2023-06-04T00:35:36;54231.31;;;-136.87
14666;BMP280;7420;53.574;10.040;2023-06-04T00:38:02;54229.28;;;-136.87
14666;BMP280;7420;53.574;10.040;2023-06-04T00:40:27;54233.38;;;-136.87
14666;BMP280;7420;53.574;10.040;2023-06-04T00:42:53;54233.38;;;-136.87
14666;BMP280;7420;53.574;10.040;2023-06-04T00:45:20;54229.28;;;-136.87
14666;BMP280;7420;53.574;10.040;2023-06-04T00:47:46;54231.31;;;-136.87
14666;BMP280;7420;53.574;10.040;2023-06-04T00:50:13;54229.28;;;-136.87
14666;BMP280;7420;53.574;10.040;2023-06-04T00:52:39;54229.28;;;-136.87
14666;BMP280;7420;53.574;10.040;2023-06-04T00:55:05;54231.31;;;-136.87
14666;BMP280;7420;53.574;10.040;2023-06-04T00:57:30;54233.38;;;-136.87
14666;BMP280;7420;53.574;10.040;2023-06-04T00:59:56;54235.41;;;-136.87
14666;BMP280;7420;53.574;10.040;2023-06-04T01:02:23;54229.28;;;-136.87
14666;BMP280;7420;53.574;10.040;2023-06-04T01:07:39;54231.31;;;-136.87
14666;BMP280;7420;53.574;10.040;2023-06-04T01:10:06;54233.38;;;-136.87
14666;BMP280;7420;53.574;10.040;2023-06-04T01:12:33;54229.28;;;-136.87
14666;BMP280;7420;53.574;10.040;2023-06-04T01:14:58;54229.28;;;-136.87
14666;BMP280;7420;53.574;10.040;2023-06-04T01:17:33;54233.38;;;-136.87
14666;BMP280;7420;53.574;10.040;2023-06-04T01:20:32;54233.38;;;-136.87
14666;BMP280;7420;53.574;10.040;2023-06-04T01:25:40;54235.41;;;-136.87
14666;BMP280;7420;53.574;10.040;2023-06-04T01:28:11;54237.44;;;-136.87
14666;BMP280;7420;53.574;10.040;2023-06-04T01:30:40;54231.31;;;-136.87
14666;BMP280;7420;53.574;10.040;2023-06-04T01:33:09;54233.38;;;-136.87
14666;BMP280;7420;53.574;10.040;2023-06-04T01:35:36;54231.31;;;-136.87
14666;BMP280;7420;53.574;10.040;2023-06-04T01:38:02;54233.38;;;-136.87
14666;BMP280;7420;53.574;10.040;2023-06-04T01:40:27;54229.28;;;-136.87
14666;BMP280;7420;53.574;10.040;2023-06-04T01:42:53;54231.31;;;-136.87
14666;BMP280;7420;53.574;10.040;2023-06-04T01:45:21;54233.38;;;-136.87
14666;BMP280;7420;53.574;10.040;2023-06-04T01:47:46;54231.31;;;-136.87
14666;BMP280;7420;53.574;10.040;2023-06-04T01:50:12;54233.38;;;-136.87
14666;BMP280;7420;53.574;10.040;2023-06-04T01:52:38;54229.28;;;-136.87
14666;BMP280;7420;53.574;10.040;2023-06-04T01:55:06;54233.38;;;-136.87
14666;BMP280;7420;53.574;10.040;2023-06-04T01:57:33;54229.28;;;-136.87
14666;BMP280;7420;53.574;10.040;2023-06-04T01:59:58;54233.38;;;-136.87
14666;BMP280;7420;53.574;10.040;2023-06-04T02:02:24;54233.38;;;-136.87
14666;BMP280;7420;53.574;10.040;2023-06-04T02:04:50;54229.28;;;-136.87
14666;BMP280;7420;53.574;10.040;2023-06-04T02:07:17;54229.28;;;-136.87
14666;BMP280;7420;53.574;10.040;2023-06-04T02:09:46;54233.38;;;-136.87
14666;BMP280;7420;53.574;10.040;2023-06-04T02:12:11;54233.38;;;-136.87
14666;BMP280;7420;53.574;10.040;2023-06-04T02:14:37;54233.38;;;-136.87
14666;BMP280;7420;53.574;10.040;2023-06-04T02:17:03;54233.38;;;-136.87
14666;BMP280;7420;53.574;10.040;2023-06-04T02:19:30;54233.38;;;-136.87
14666;BMP280;7420;53.574;10.040;2023-06-04T02:21:59;54233.38;;;-136.87
14666;BMP280;7420;53.574;10.040;2023-06-04T02:24:24;54229.28;;;-136.87
14666;BMP280;7420;53.574;10.040;2023-06-04T02:26:50;54229.28;;;-136.87
14666;BMP280;7420;53.574;10.040;2023-06-04T02:29:15;54233.38;;;-136.87
14666;BMP280;7420;53.574;10.040;2023-06-04T02:31:41;54233.38;;;-136.87
14666;BMP280;7420;53.574;10.040;2023-06-04T02:34:06;54235.41;;;-136.87
14666;BMP280;7420;53.574;10.040;2023-06-04T02:36:31;54229.28;;;-136.87
14666;BMP280;7420;53.574;10.040;2023-06-04T02:38:57;54231.31;;;-136.87
14666;BMP280;7420;53.574;10.040;2023-06-04T02:41:23;54233.38;;;-136.87
14666;BMP280;7420;53.574;10.040;2023-06-04T02:43:49;54231.31;;;-136.87
14666;BMP280;7420;53.574;10.040;2023-06-04T02:46:14;54231.31;;;-136.87
14666;BMP280;7420;53.574;10.040;2023-06-04T02:48:40;54233.38;;;-136.87
14666;BMP280;7420;53.574;10.040;2023-06-04T02:51:05;54229.28;;;-136.87
14666;BMP280;7420;53.574;10.040;2023-06-04T02:53:31;54229.28;;;-136.87
14666;BMP280;7420;53.574;10.040;2023-06-04T02:55:56;54233.38;;;-136.87
14666;BMP280;7420;53.574;10.040;2023-06-04T02:58:22;54231.31;;;-136.87
14666;BMP280;7420;53.574;10.040;2023-06-04T03:00:52;54231.31;;;-136.87
14666;BMP280;7420;53.574;10.040;2023-06-04T03:03:18;54233.38;;;-136.87
14666;BMP280;7420;53.574;10.040;2023-06-04T03:05:43;54231.31;;;-136.87
14666;BMP280;7420;53.574;10.040;2023-06-04T03:08:09;54231.31;;;-136.87
14666;BMP280;7420;53.574;10.040;2023-06-04T03:10:34;54231.31;;;-136.87
14666;BMP280;7420;53.574;10.040;2023-06-04T03:13:00;54229.28;;;-136.87
14666;BMP280;7420;53.574;10.040;2023-06-04T03:15:26;54233.38;;;-136.87
14666;BMP280;7420;53.574;10.040;2023-06-04T03:17:51;54229.28;;;-136.87
14666;BMP280;7420;53.574;10.040;2023-06-04T03:20:17;54235.41;;;-136.87
14666;BMP280;7420;53.574;10.040;2023-06-04T03:22:42;54233.38;;;-136.87
14666;BMP280;7420;53.574;10.040;2023-06-04T03:25:08;54231.31;;;-136.87
14666;BMP280;7420;53.574;10.040;2023-06-04T03:27:34;54231.31;;;-136.87
14666;BMP280;7420;53.574;10.040;2023-06-04T03:29:59;54229.28;;;-136.87
14666;BMP280;7420;53.574;10.040;2023-06-04T03:32:25;54233.38;;;-136.87
14666;BMP280;7420;53.574;10.040;2023-06-04T03:34:50;54231.31;;;-136.87
14666;BMP280;7420;53.574;10.040;2023-06-04T03:37:16;54231.31;;;-136.87
14666;BMP280;7420;53.574;10.040;2023-06-04T03:39:42;54229.28;;;-136.87
14666;BMP280;7420;53.574;10.040;2023-06-04T03:42:07;54231.31;;;-136.87
14666;BMP280;7420;53.574;10.040;2023-06-04T03:44:33;54233.38;;;-136.87
14666;BMP280;7420;53.574;10.040;2023-06-04T03:46:58;54233.38;;;-136.87
14666;BMP280;7420;53.574;10.040;2023-06-04T03:49:24;54233.38;;;-136.87
14666;BMP280;7420;53.574;10.040;2023-06-04T03:51:50;54231.31;;;-136.87
14666;BMP280;7420;53.574;10.040;2023-06-04T03:54:15;54231.31;;;-136.87
14666;BMP280;7420;53.574;10.040;2023-06-04T03:56:45;54233.38;;;-136.87
14666;BMP280;7420;53.574;10.040;2023-06-04T03:59:11;54233.38;;;-136.87
14666;BMP280;7420;53.574;10.040;2023-06-04T04:01:36;54233.38;;;-136.87
14666;BMP280;7420;53.574;10.040;2023-06-04T04:04:01;54231.31;;;-136.87
14666;BMP280;7420;53.574;10.040;2023-06-04T04:06:27;54229.28;;;-136.87
14666;BMP280;7420;53.574;10.040;2023-06-04T04:08:52;54229.28;;;-136.87
14666;BMP280;7420;53.574;10.040;2023-06-04T04:11:18;54229.28;;;-136.87
14666;BMP280;7420;53.574;10.040;2023-06-04T04:13:44;54229.28;;;-136.87
14666;BMP280;7420;53.574;10.040;2023-06-04T04:16:10;54231.31;;;-136.87
14666;BMP280;7420;53.574;10.040;2023-06-04T04:18:36;54231.31;;;-136.87
14666;BMP280;7420;53.574;10.040;2023-06-04T04:21:03;54231.31;;;-136.87
14666;BMP280;7420;53.574;10.040;2023-06-04T04:23:29;54231.31;;;-136.87
14666;BMP280;7420;53.574;10.040;2023-06-04T04:25:55;54231.31;;;-136.87
14666;BMP280;7420;53.574;10.040;2023-06-04T04:28:25;54229.28;;;-136.87
14666;BMP280;7420;53.574;10.040;2023-06-04T04:31:02;54227.25;;;-136.87
14666;BMP280;7420;53.574;10.040;2023-06-04T04:33:31;54229.28;;;-136.87
14666;BMP280;7420;53.574;10.040;2023-06-04T04:36:02;54229.28;;;-136.87
14666;BMP280;7420;53.574;10.040;2023-06-04T04:38:27;54229.28;;;-136.87
14666;BMP280;7420;53.574;10.040;2023-06-04T04:40:53;54233.38;;;-136.87
14666;BMP280;7420;53.574;10.040;2023-06-04T04:43:29;54231.31;;;-136.87
14666;BMP280;7420;53.574;10.040;2023-06-04T04:45:55;54229.28;;;-136.87
14666;BMP280;7420;53.574;10.040;2023-06-04T04:48:21;54231.31;;;-136.87
14666;BMP280;7420;53.574;10.040;2023-06-04T04:50:46;54231.31;;;-136.87
14666;BMP280;7420;53.574;10.040;2023-06-04T04:53:30;54231.31;;;-136.87
14666;BMP280;7420;53.574;10.040;2023-06-04T04:55:55;54233.38;;;-136.87
14666;BMP280;7420;53.574;10.040;2023-06-04T04:58:21;54231.31;;;-136.87
14666;BMP280;7420;53.574;10.040;2023-06-04T05:00:46;54229.28;;;-136.87
14666;BMP280;7420;53.574;10.040;2023-06-04T05:03:13;54233.38;;;-136.87
14666;BMP280;7420;53.574;10.040;2023-06-04T05:05:39;54229.28;;;-136.87
14666;BMP280;7420;53.574;10.040;2023-06-04T05:08:07;54231.31;;;-136.87
14666;BMP280;7420;53.574;10.040;2023-06-04T05:10:32;54231.31;;;-136.87
14666;BMP280;7420;53.574;10.040;2023-06-04T05:13:00;54231.31;;;-136.87
14666;BMP280;7420;53.574;10.040;2023-06-04T05:15:29;54229.28;;;-136.87
14666;BMP280;7420;53.574;10.040;2023-06-04T05:17:55;54227.25;;;-136.87
14666;BMP280;7420;53.574;10.040;2023-06-04T05:20:21;54229.28;;;-136.87
14666;BMP280;7420;53.574;10.040;2023-06-04T05:22:48;54229.28;;;-136.87
14666;BMP280;7420;53.574;10.040;2023-06-04T05:25:14;54229.28;;;-136.87
14666;BMP280;7420;53.574;10.040;2023-06-04T05:27:40;54231.31;;;-136.87
14666;BMP280;7420;53.574;10.040;2023-06-04T05:30:09;54231.31;;;-136.87
14666;BMP280;7420;53.574;10.040;2023-06-04T05:32:34;54229.28;;;-136.87
14666;BMP280;7420;53.574;10.040;2023-06-04T05:35:06;54227.25;;;-136.87
14666;BMP280;7420;53.574;10.040;2023-06-04T05:37:32;54231.31;;;-136.87
14666;BMP280;7420;53.574;10.040;2023-06-04T05:39:59;54233.38;;;-136.87
14666;BMP280;7420;53.574;10.040;2023-06-04T05:42:25;54229.28;;;-136.87
14666;BMP280;7420;53.574;10.040;2023-06-04T05:44:51;54231.31;;;-136.87
14666;BMP280;7420;53.574;10.040;2023-06-04T05:47:17;54229.28;;;-136.87
14666;BMP280;7420;53.574;10.040;2023-06-04T05:49:43;54229.28;;;-136.87
14666;BMP280;7420;53.574;10.040;2023-06-04T05:52:09;54231.31;;;-136.87
14666;BMP280;7420;53.574;10.040;2023-06-04T05:54:34;54233.38;;;-136.87
14666;BMP280;7420;53.574;10.040;2023-06-04T05:57:02;54229.28;;;-136.87
14666;BMP280;7420;53.574;10.040;2023-06-04T05:59:27;54229.28;;;-136.87
14666;BMP280;7420;53.574;10.040;2023-06-04T06:01:53;54233.38;;;-136.87
14666;BMP280;7420;53.574;10.040;2023-06-04T06:04:18;54231.31;;;-136.87
14666;BMP280;7420;53.574;10.040;2023-06-04T06:06:44;54229.28;;;-136.87
14666;BMP280;7420;53.574;10.040;2023-06-04T06:09:12;54225.19;;;-136.87
14666;BMP280;7420;53.574;10.040;2023-06-04T06:11:37;54229.28;;;-136.87
14666;BMP280;7420;53.574;10.040;2023-06-04T06:14:03;54227.25;;;-136.87
14666;BMP280;7420;53.574;10.040;2023-06-04T06:16:28;54225.19;;;-136.87
14666;BMP280;7420;53.574;10.040;2023-06-04T06:18:55;54227.25;;;-136.87
14666;BMP280;7420;53.574;10.040;2023-06-04T06:21:20;54227.25;;;-136.87
14666;BMP280;7420;53.574;10.040;2023-06-04T06:23:46;54229.28;;;-136.87
14666;BMP280;7420;53.574;10.040;2023-06-04T06:26:11;54229.28;;;-136.87
14666;BMP280;7420;53.574;10.040;2023-06-04T06:28:37;54229.28;;;-136.87
14666;BMP280;7420;53.574;10.040;2023-06-04T06:31:07;54227.25;;;-136.87
14666;BMP280;7420;53.574;10.040;2023-06-04T06:33:33;54231.31;;;-136.87
14666;BMP280;7420;53.574;10.040;2023-06-04T06:35:58;54229.28;;;-136.87
14666;BMP280;7420;53.574;10.040;2023-06-04T06:38:27;54229.28;;;-136.87
14666;BMP280;7420;53.574;10.040;2023-06-04T06:40:55;54233.38;;;-136.87
14666;BMP280;7420;53.574;10.040;2023-06-04T06:43:20;54227.25;;;-136.87
14666;BMP280;7420;53.574;10.040;2023-06-04T06:45:48;54225.19;;;-136.87
14666;BMP280;7420;53.574;10.040;2023-06-04T06:48:16;54229.28;;;-136.87
14666;BMP280;7420;53.574;10.040;2023-06-04T06:50:41;54227.25;;;-136.87
14666;BMP280;7420;53.574;10.040;2023-06-04T06:53:06;54229.28;;;-136.87
14666;BMP280;7420;53.574;10.040;2023-06-04T06:55:32;54229.28;;;-136.87
14666;BMP280;7420;53.574;10.040;2023-06-04T06:57:58;54227.25;;;-136.87
14666;BMP280;7420;53.574;10.040;2023-06-04T07:00:25;54227.25;;;-136.87
14666;BMP280;7420;53.574;10.040;2023-06-04T07:02:50;54225.19;;;-136.87
14666;BMP280;7420;53.574;10.040;2023-06-04T07:05:16;54229.28;;;-136.87
14666;BMP280;7420;53.574;10.040;2023-06-04T07:07:43;54225.19;;;-136.87
14666;BMP280;7420;53.574;10.040;2023-06-04T07:10:09;54229.28;;;-136.87
14666;BMP280;7420;53.574;10.040;2023-06-04T07:12:34;54227.25;;;-136.87
14666;BMP280;7420;53.574;10.040;2023-06-04T07:15:00;54229.28;;;-136.87
14666;BMP280;7420;53.574;10.040;2023-06-04T07:17:26;54225.19;;;-136.87
14666;BMP280;7420;53.574;10.040;2023-06-04T07:19:51;54227.25;;;-136.87
14666;BMP280;7420;53.574;10.040;2023-06-04T07:22:17;54229.28;;;-136.87
14666;BMP280;7420;53.574;10.040;2023-06-04T07:24:42;54229.28;;;-136.87
14666;BMP280;7420;53.574;10.040;2023-06-04T07:27:14;54231.31;;;-136.87
14666;BMP280;7420;53.574;10.040;2023-06-04T07:29:43;54227.25;;;-136.87
14666;BMP280;7420;53.574;10.040;2023-06-04T07:32:08;54227.25;;;-136.87
14666;BMP280;7420;53.574;10.040;2023-06-04T07:34:38;54227.25;;;-136.87
14666;BMP280;7420;53.574;10.040;2023-06-04T07:37:04;54227.25;;;-136.87
14666;BMP280;7420;53.574;10.040;2023-06-04T07:39:29;54229.28;;;-136.87
14666;BMP280;7420;53.574;10.040;2023-06-04T07:41:55;54225.19;;;-136.87
14666;BMP280;7420;53.574;10.040;2023-06-04T07:44:20;54229.28;;;-136.87
14666;BMP280;7420;53.574;10.040;2023-06-04T07:46:46;54225.19;;;-136.87
14666;BMP280;7420;53.574;10.040;2023-06-04T07:49:11;54225.19;;;-136.87
14666;BMP280;7420;53.574;10.040;2023-06-04T07:51:36;54229.28;;;-136.87
14666;BMP280;7420;53.574;10.040;2023-06-04T07:54:02;54227.25;;;-136.87
14666;BMP280;7420;53.574;10.040;2023-06-04T07:56:28;54227.25;;;-136.87
14666;BMP280;7420;53.574;10.040;2023-06-04T07:58:53;54223.16;;;-136.87
14666;BMP280;7420;53.574;10.040;2023-06-04T08:01:18;54225.19;;;-136.87
14666;BMP280;7420;53.574;10.040;2023-06-04T08:03:44;54227.25;;;-136.87
14666;BMP280;7420;53.574;10.040;2023-06-04T08:06:10;54227.25;;;-136.87
14666;BMP280;7420;53.574;10.040;2023-06-04T08:08:35;54229.28;;;-136.87
14666;BMP280;7420;53.574;10.040;2023-06-04T08:11:01;54229.28;;;-136.87
14666;BMP280;7420;53.574;10.040;2023-06-04T08:13:26;54229.28;;;-136.87
14666;BMP280;7420;53.574;10.040;2023-06-04T08:15:52;54227.25;;;-136.87
14666;BMP280;7420;53.574;10.040;2023-06-04T08:18:17;54227.25;;;-136.87
14666;BMP280;7420;53.574;10.040;2023-06-04T08:20:42;54227.25;;;-136.87
14666;BMP280;7420;53.574;10.040;2023-06-04T08:23:08;54227.25;;;-136.87
14666;BMP280;7420;53.574;10.040;2023-06-04T08:25:33;54227.25;;;-136.87
14666;BMP280;7420;53.574;10.040;2023-06-04T08:27:59;54227.25;;;-136.87
14666;BMP280;7420;53.574;10.040;2023-06-04T08:30:25;54225.19;;;-136.87
14666;BMP280;7420;53.574;10.040;2023-06-04T08:32:50;54225.19;;;-136.87
14666;BMP280;7420;53.574;10.040;2023-06-04T08:35:16;54227.25;;;-136.87
14666;BMP280;7420;53.574;10.040;2023-06-04T08:37:42;54227.25;;;-136.87
14666;BMP280;7420;53.574;10.040;2023-06-04T08:40:09;54225.19;;;-136.87
14666;BMP280;7420;53.574;10.040;2023-06-04T08:42:41;54227.25;;;-136.87
14666;BMP280;7420;53.574;10.040;2023-06-04T08:45:11;54227.25;;;-136.87
14666;BMP280;7420;53.574;10.040;2023-06-04T08:47:44;54225.19;;;-136.87
14666;BMP280;7420;53.574;10.040;2023-06-04T08:50:10;54225.19;;;-136.87
14666;BMP280;7420;53.574;10.040;2023-06-04T08:52:37;54225.19;;;-136.87
14666;BMP280;7420;53.574;10.040;2023-06-04T08:55:04;54225.19;;;-136.87
14666;BMP280;7420;53.574;10.040;2023-06-04T08:57:32;54225.19;;;-136.87
14666;BMP280;7420;53.574;10.040;2023-06-04T08:59:58;54223.16;;;-136.87
14666;BMP280;7420;53.574;10.040;2023-06-04T09:02:27;54227.25;;;-136.87
14666;BMP280;7420;53.574;10.040;2023-06-04T09:04:53;54225.19;;;-136.87
14666;BMP280;7420;53.574;10.040;2023-06-04T09:07:19;54229.28;;;-136.87
14666;BMP280;7420;53.574;10.040;2023-06-04T09:09:46;54225.19;;;-136.87
14666;BMP280;7420;53.574;10.040;2023-06-04T09:12:21;54227.25;;;-136.87
14666;BMP280;7420;53.574;10.040;2023-06-04T09:14:48;54227.25;;;-136.87
14666;BMP280;7420;53.574;10.040;2023-06-04T09:17:16;54225.19;;;-136.87
14666;BMP280;7420;53.574;10.040;2023-06-04T09:19:45;54229.28;;;-136.87
14666;BMP280;7420;53.574;10.040;2023-06-04T09:22:11;54227.25;;;-136.87
14666;BMP280;7420;53.574;10.040;2023-06-04T09:24:44;54229.28;;;-136.87
14666;BMP280;7420;53.574;10.040;2023-06-04T09:27:19;54225.19;;;-136.87
14666;BMP280;7420;53.574;10.040;2023-06-04T09:33:23;54225.19;;;-136.87
14666;BMP280;7420;53.574;10.040;2023-06-04T09:35:56;54227.25;;;-136.87
14666;BMP280;7420;53.574;10.040;2023-06-04T09:38:23;54223.16;;;-136.87
14666;BMP280;7420;53.574;10.040;2023-06-04T09:40:48;54225.19;;;-136.87
14666;BMP280;7420;53.574;10.040;2023-06-04T09:43:22;54229.28;;;-136.87
14666;BMP280;7420;53.574;10.040;2023-06-04T09:45:48;54225.19;;;-136.87
14666;BMP280;7420;53.574;10.040;2023-06-04T09:48:21;54227.25;;;-136.87
14666;BMP280;7420;53.574;10.040;2023-06-04T09:50:47;54229.28;;;-136.87
14666;BMP280;7420;53.574;10.040;2023-06-04T09:53:19;54227.25;;;-136.87
14666;BMP280;7420;53.574;10.040;2023-06-04T09:55:57;54229.28;;;-136.87
14666;BMP280;7420;53.574;10.040;2023-06-04T09:58:26;54225.19;;;-136.87
14666;BMP280;7420;53.574;10.040;2023-06-04T10:00:53;54225.19;;;-136.87
14666;BMP280;7420;53.574;10.040;2023-06-04T10:03:22;54227.25;;;-136.87
14666;BMP280;7420;53.574;10.040;2023-06-04T10:05:52;54225.19;;;-136.87
14666;BMP280;7420;53.574;10.040;2023-06-04T10:08:18;54225.19;;;-136.87
14666;BMP280;7420;53.574;10.040;2023-06-04T10:10:45;54221.13;;;-136.87
14666;BMP280;7420;53.574;10.040;2023-06-04T10:13:17;54225.19;;;-136.87
14666;BMP280;7420;53.574;10.040;2023-06-04T10:15:43;54229.28;;;-136.87
14666;BMP280;7420;53.574;10.040;2023-06-04T10:18:09;54225.19;;;-136.87
14666;BMP280;7420;53.574;10.040;2023-06-04T10:20:35;54227.25;;;-136.87
14666;BMP280;7420;53.574;10.040;2023-06-04T10:23:02;54227.25;;;-136.87
14666;BMP280;7420;53.574;10.040;2023-06-04T10:25:29;54225.19;;;-136.87
14666;BMP280;7420;53.574;10.040;2023-06-04T10:27:56;54225.19;;;-136.87
14666;BMP280;7420;53.574;10.040;2023-06-04T10:30:21;54225.19;;;-136.87
14666;BMP280;7420;53.574;10.040;2023-06-04T10:32:47;54227.25;;;-136.87
14666;BMP280;7420;53.574;10.040;2023-06-04T10:35:13;54227.25;;;-136.87
14666;BMP280;7420;53.574;10.040;2023-06-04T10:37:40;54227.25;;;-136.87
14666;BMP280;7420;53.574;10.040;2023-06-04T10:40:06;54225.19;;;-136.87
14666;BMP280;7420;53.574;10.040;2023-06-04T10:42:42;54227.25;;;-136.87
14666;BMP280;7420;53.574;10.040;2023-06-04T10:45:08;54227.25;;;-136.87
14666;BMP280;7420;53.574;10.040;2023-06-04T10:47:35;54225.19;;;-136.87
14666;BMP280;7420;53.574;10.040;2023-06-04T10:50:10;54225.19;;;-136.87
14666;BMP280;7420;53.574;10.040;2023-06-04T10:52:37;54227.25;;;-136.87
14666;BMP280;7420;53.574;10.040;2023-06-04T10:55:05;54225.19;;;-136.87
14666;BMP280;7420;53.574;10.040;2023-06-04T10:57:32;54223.16;;;-136.87
14666;BMP280;7420;53.574;10.040;2023-06-04T11:02:24;54223.16;;;-136.87
14666;BMP280;7420;53.574;10.040;2023-06-04T11:05:00;54227.25;;;-136.87
14666;BMP280;7420;53.574;10.040;2023-06-04T11:07:40;54227.25;;;-136.87
14666;BMP280;7420;53.574;10.040;2023-06-04T11:10:06;54227.25;;;-136.87
14666;BMP280;7420;53.574;10.040;2023-06-04T11:12:44;54227.25;;;-136.87
14666;BMP280;7420;53.574;10.040;2023-06-04T11:15:10;54229.28;;;-136.87
14666;BMP280;7420;53.574;10.040;2023-06-04T11:17:36;54227.25;;;-136.87
14666;BMP280;7420;53.574;10.040;2023-06-04T11:20:02;54225.19;;;-136.87
14666;BMP280;7420;53.574;10.040;2023-06-04T11:22:28;54225.19;;;-136.87
14666;BMP280;7420;53.574;10.040;2023-06-04T11:24:57;54227.25;;;-136.87
14666;BMP280;7420;53.574;10.040;2023-06-04T11:27:24;54229.28;;;-136.87
14666;BMP280;7420;53.574;10.040;2023-06-04T11:29:51;54227.25;;;-136.87
14666;BMP280;7420;53.574;10.040;2023-06-04T11:32:25;54225.19;;;-136.87
14666;BMP280;7420;53.574;10.040;2023-06-04T11:35:01;54223.16;;;-136.87
14666;BMP280;7420;53.574;10.040;2023-06-04T11:37:26;54227.25;;;-136.87
14666;BMP280;7420;53.574;10.040;2023-06-04T11:39:55;54229.28;;;-136.87
14666;BMP280;7420;53.574;10.040;2023-06-04T11:42:21;54225.19;;;-136.87
14666;BMP280;7420;53.574;10.040;2023-06-04T11:44:46;54229.28;;;-136.87
14666;BMP280;7420;53.574;10.040;2023-06-04T11:47:14;54225.19;;;-136.87
14666;BMP280;7420;53.574;10.040;2023-06-04T11:49:40;54225.19;;;-136.87
14666;BMP280;7420;53.574;10.040;2023-06-04T11:52:08;54231.31;;;-136.87
14666;BMP280;7420;53.574;10.040;2023-06-04T11:54:33;54233.38;;;-136.87
14666;BMP280;7420;53.574;10.040;2023-06-04T11:57:03;54231.31;;;-136.87
14666;BMP280;7420;53.574;10.040;2023-06-04T11:59:30;54229.28;;;-136.87
14666;BMP280;7420;53.574;10.040;2023-06-04T12:01:56;54229.28;;;-136.87
14666;BMP280;7420;53.574;10.040;2023-06-04T12:04:22;54243.59;;;-136.87
14666;BMP280;7420;53.574;10.040;2023-06-04T12:06:55;54241.53;;;-136.87
14666;BMP280;7420;53.574;10.040;2023-06-04T12:09:29;54239.50;;;-136.87
14666;BMP280;7420;53.574;10.040;2023-06-04T12:12:07;54235.41;;;-136.87
14666;BMP280;7420;53.574;10.040;2023-06-04T12:14:33;54229.28;;;-136.87
14666;BMP280;7420;53.574;10.040;2023-06-04T12:16:59;54235.41;;;-136.87
14666;BMP280;7420;53.574;10.040;2023-06-04T12:19:26;54239.50;;;-136.87
14666;BMP280;7420;53.574;10.040;2023-06-04T12:22:03;54241.53;;;-136.87
14666;BMP280;7420;53.574;10.040;2023-06-04T12:24:32;54247.66;;;-136.87
14666;BMP280;7420;53.574;10.040;2023-06-04T12:27:05;54247.66;;;-136.87
14666;BMP280;7420;53.574;10.040;2023-06-04T12:29:32;54241.53;;;-136.87
14666;BMP280;7420;53.574;10.040;2023-06-04T12:32:08;54243.59;;;-136.87
14666;BMP280;7420;53.574;10.040;2023-06-04T12:34:38;54245.63;;;-136.87
14666;BMP280;7420;53.574;10.040;2023-06-04T12:37:06;54239.50;;;-136.87
14666;BMP280;7420;53.574;10.040;2023-06-04T12:39:36;54245.63;;;-136.87
14666;BMP280;7420;53.574;10.040;2023-06-04T12:42:10;54241.53;;;-136.87
14666;BMP280;7420;53.574;10.040;2023-06-04T12:44:38;54241.53;;;-136.87
14666;BMP280;7420;53.574;10.040;2023-06-04T12:47:04;54241.53;;;-136.87
14666;BMP280;7420;53.574;10.040;2023-06-04T12:49:29;54241.53;;;-136.87
14666;BMP280;7420;53.574;10.040;2023-06-04T12:51:55;54243.59;;;-136.87
14666;BMP280;7420;53.574;10.040;2023-06-04T12:54:20;54243.59;;;-136.87
14666;BMP280;7420;53.574;10.040;2023-06-04T12:56:46;54245.63;;;-136.87
14666;BMP280;7420;53.574;10.040;2023-06-04T12:59:11;54241.53;;;-136.87
14666;BMP280;7420;53.574;10.040;2023-06-04T13:01:37;54247.66;;;-136.87
14666;BMP280;7420;53.574;10.040;2023-06-04T13:04:03;54243.59;;;-136.87
14666;BMP280;7420;53.574;10.040;2023-06-04T13:06:29;54245.63;;;-136.87
14666;BMP280;7420;53.574;10.040;2023-06-04T13:08:54;54241.53;;;-136.87
14666;BMP280;7420;53.574;10.040;2023-06-04T13:11:20;54237.44;;;-136.87
14666;BMP280;7420;53.574;10.040;2023-06-04T13:13:47;54235.41;;;-136.87
14666;BMP280;7420;53.574;10.040;2023-06-04T13:16:12;54243.59;;;-136.87
14666;BMP280;7420;53.574;10.040;2023-06-04T13:18:38;54235.41;;;-136.87
14666;BMP280;7420;53.574;10.040;2023-06-04T13:21:04;54245.63;;;-136.87
14666;BMP280;7420;53.574;10.040;2023-06-04T13:23:29;54239.50;;;-136.87
14666;BMP280;7420;53.574;10.040;2023-06-04T13:25:55;54241.53;;;-136.87
14666;BMP280;7420;53.574;10.040;2023-06-04T13:28:20;54243.59;;;-136.87
14666;BMP280;7420;53.574;10.040;2023-06-04T13:30:46;54245.63;;;-136.87
14666;BMP280;7420;53.574;10.040;2023-06-04T13:33:11;54241.53;;;-136.87
14666;BMP280;7420;53.574;10.040;2023-06-04T13:35:37;54237.44;;;-136.87
14666;BMP280;7420;53.574;10.040;2023-06-04T13:40:49;54241.53;;;-136.87
14666;BMP280;7420;53.574;10.040;2023-06-04T13:43:15;54237.44;;;-136.87
14666;BMP280;7420;53.574;10.040;2023-06-04T13:45:40;54237.44;;;-136.87
14666;BMP280;7420;53.574;10.040;2023-06-04T13:48:07;54229.28;;;-136.87
14666;BMP280;7420;53.574;10.040;2023-06-04T13:50:33;54225.19;;;-136.87
14666;BMP280;7420;53.574;10.040;2023-06-04T13:52:59;54223.16;;;-136.87
14666;BMP280;7420;53.574;10.040;2023-06-04T13:55:25;54229.28;;;-136.87
14666;BMP280;7420;53.574;10.040;2023-06-04T13:57:50;54225.19;;;-136.87